EZS37YZ GMTT-LSGG
Flight info
| Callsign | EZS37YZ |
|---|---|
| Flight time | N/A |
| Altitude | 18000 |
| Route | NOLRO DCT ADKIM Z53 VJF/N0436F360 N10 VTB N871 RONNY DCT TOPTU DCT TOU DCT GAI DCT MEN DCT NINUN/N0405F300 DCT LATAM DCT ETREK DCT LUXAN G53 LTP Z16 BELUS |
| Aircraft | A320/M-SDE2E3FGHIJ1RWXYZ/LB1 |
Departure
| Time | 2026-04-27 19:43 |
|---|---|
| Airport | Tangier Ibn Battuta Airport (GMTT) |
Arrival
| Time | N/A |
|---|---|
| Airport | Geneva International Airport (LSGG) |
| Time | Latitude | Longitude | Altitude | Speed | Heading |
|---|---|---|---|---|---|
| 2026-04-27 19:16 | 35.72530 | -5.91193 | 60 ft | 0 kts | 354° |
| 2026-04-27 19:33 | 35.72508 | -5.91190 | 58 ft | 4 kts | 349° |
| 2026-04-27 19:33 | 35.72481 | -5.91182 | 54 ft | 4 kts | 339° |
| 2026-04-27 19:34 | 35.72458 | -5.91167 | 53 ft | 4 kts | 311° |
| 2026-04-27 19:34 | 35.72450 | -5.91148 | 57 ft | 0 kts | 265° |
| 2026-04-27 19:37 | 35.72449 | -5.91158 | 56 ft | 3 kts | 265° |
| 2026-04-27 19:37 | 35.72446 | -5.91208 | 58 ft | 9 kts | 266° |
| 2026-04-27 19:37 | 35.72441 | -5.91298 | 60 ft | 12 kts | 265° |
| 2026-04-27 19:38 | 35.72434 | -5.91419 | 60 ft | 16 kts | 264° |
| 2026-04-27 19:38 | 35.72427 | -5.91565 | 60 ft | 18 kts | 273° |
| 2026-04-27 19:38 | 35.72505 | -5.91682 | 56 ft | 19 kts | 341° |
| 2026-04-27 19:38 | 35.72640 | -5.91698 | 60 ft | 19 kts | 355° |
| 2026-04-27 19:39 | 35.72770 | -5.91711 | 60 ft | 20 kts | 356° |
| 2026-04-27 19:39 | 35.72910 | -5.91726 | 52 ft | 20 kts | 345° |
| 2026-04-27 19:39 | 35.72961 | -5.91879 | 54 ft | 22 kts | 276° |
| 2026-04-27 19:39 | 35.72979 | -5.92070 | 57 ft | 23 kts | 277° |
| 2026-04-27 19:40 | 35.72997 | -5.92272 | 57 ft | 24 kts | 277° |
| 2026-04-27 19:40 | 35.73017 | -5.92478 | 54 ft | 25 kts | 276° |
| 2026-04-27 19:40 | 35.73037 | -5.92687 | 60 ft | 24 kts | 276° |
| 2026-04-27 19:40 | 35.73055 | -5.92881 | 60 ft | 22 kts | 276° |
| 2026-04-27 19:41 | 35.73072 | -5.93073 | 57 ft | 23 kts | 277° |
| 2026-04-27 19:41 | 35.73091 | -5.93269 | 60 ft | 23 kts | 276° |
| 2026-04-27 19:41 | 35.73109 | -5.93457 | 60 ft | 21 kts | 277° |
| 2026-04-27 19:41 | 35.73125 | -5.93645 | 60 ft | 23 kts | 276° |
| 2026-04-27 19:42 | 35.73143 | -5.93837 | 60 ft | 19 kts | 276° |
| 2026-04-27 19:42 | 35.73166 | -5.93998 | 55 ft | 20 kts | 294° |
| 2026-04-27 19:42 | 35.73271 | -5.94052 | 58 ft | 17 kts | 17° |
| 2026-04-27 19:42 | 35.73341 | -5.93958 | 60 ft | 16 kts | 89° |
| 2026-04-27 19:43 | 35.73313 | -5.93697 | 61 ft | 62 kts | 96° |
| 2026-04-27 19:43 | 35.73240 | -5.92907 | 60 ft | 120 kts | 96° |
| 2026-04-27 19:43 | 35.73116 | -5.91731 | 263 ft | 148 kts | 94° |
| 2026-04-27 19:43 | 35.72984 | -5.90468 | 886 ft | 149 kts | 95° |
| 2026-04-27 19:44 | 35.72875 | -5.89198 | 1540 ft | 153 kts | 95° |
| 2026-04-27 19:44 | 35.72758 | -5.87813 | 1823 ft | 174 kts | 95° |
| 2026-04-27 19:44 | 35.72622 | -5.86234 | 2156 ft | 197 kts | 96° |
| 2026-04-27 19:44 | 35.72469 | -5.84518 | 2811 ft | 205 kts | 96° |
| 2026-04-27 19:45 | 35.72312 | -5.82749 | 3539 ft | 210 kts | 96° |
| 2026-04-27 19:45 | 35.72148 | -5.80926 | 4194 ft | 220 kts | 96° |
| 2026-04-27 19:45 | 35.71834 | -5.79051 | 4823 ft | 229 kts | 110° |
| 2026-04-27 19:45 | 35.71013 | -5.77345 | 5501 ft | 237 kts | 130° |
| 2026-04-27 19:46 | 35.69727 | -5.76048 | 6185 ft | 244 kts | 152° |
| 2026-04-27 19:46 | 35.68106 | -5.75383 | 6865 ft | 249 kts | 173° |
| 2026-04-27 19:46 | 35.66380 | -5.75482 | 7606 ft | 251 kts | 195° |
| 2026-04-27 19:46 | 35.64791 | -5.76353 | 8390 ft | 252 kts | 217° |
| 2026-04-27 19:47 | 35.63567 | -5.77879 | 9212 ft | 252 kts | 237° |
| 2026-04-27 19:47 | 35.62872 | -5.79846 | 10019 ft | 253 kts | 258° |
| 2026-04-27 19:47 | 35.62809 | -5.82010 | 10795 ft | 256 kts | 278° |
| 2026-04-27 19:47 | 35.63396 | -5.84059 | 11529 ft | 262 kts | 297° |
| 2026-04-27 19:48 | 35.64333 | -5.86027 | 12288 ft | 265 kts | 297° |
| 2026-04-27 19:48 | 35.65267 | -5.87990 | 13020 ft | 267 kts | 296° |
| 2026-04-27 19:48 | 35.66193 | -5.89947 | 13732 ft | 270 kts | 295° |
| 2026-04-27 19:48 | 35.67141 | -5.91954 | 14377 ft | 273 kts | 295° |
| 2026-04-27 19:49 | 35.68097 | -5.93981 | 15020 ft | 275 kts | 295° |
| 2026-04-27 19:49 | 35.69058 | -5.96030 | 15668 ft | 278 kts | 294° |
| 2026-04-27 19:49 | 35.70028 | -5.98096 | 16318 ft | 280 kts | 295° |
| 2026-04-27 19:49 | 35.71007 | -6.00181 | 16949 ft | 283 kts | 295° |
| 2026-04-27 19:50 | 35.72135 | -6.02194 | 17573 ft | 293 kts | 311° |
| 2026-04-27 19:50 | 35.73849 | -6.03635 | 17825 ft | 308 kts | 335° |
| 2026-04-27 19:50 | 35.76060 | -6.04039 | 17869 ft | 340 kts | 2° |
| 2026-04-27 19:50 | 35.78496 | -6.03640 | 17870 ft | 365 kts | 6° |
| 2026-04-27 19:51 | 35.81087 | -6.03195 | 17867 ft | 387 kts | 5° |
| 2026-04-27 19:51 | 35.83804 | -6.02758 | 17862 ft | 397 kts | 4° |
| 2026-04-27 19:51 | 35.86549 | -6.02361 | 17867 ft | 398 kts | 5° |
| 2026-04-27 19:51 | 35.89305 | -6.02004 | 17869 ft | 398 kts | 4° |
| 2026-04-27 19:52 | 35.92071 | -6.01666 | 17980 ft | 402 kts | 3° |
| 2026-04-27 19:52 | 35.94859 | -6.01327 | 18549 ft | 404 kts | 4° |
| 2026-04-27 19:52 | 35.97663 | -6.00982 | 19137 ft | 406 kts | 4° |
| 2026-04-27 19:52 | 36.00485 | -6.00626 | 19678 ft | 408 kts | 4° |
| 2026-04-27 19:53 | 36.06166 | -5.99894 | 20784 ft | 413 kts | 5° |
| 2026-04-27 19:53 | 36.09029 | -5.99521 | 21302 ft | 415 kts | 5° |
| 2026-04-27 19:53 | 36.11915 | -5.99144 | 21812 ft | 418 kts | 5° |
| 2026-04-27 19:54 | 36.14809 | -5.98764 | 22344 ft | 420 kts | 5° |
| 2026-04-27 19:54 | 36.17725 | -5.98382 | 22855 ft | 422 kts | 5° |
| 2026-04-27 19:54 | 36.20655 | -5.97997 | 23360 ft | 425 kts | 5° |
| 2026-04-27 19:54 | 36.23602 | -5.97606 | 23802 ft | 427 kts | 6° |
| 2026-04-27 19:55 | 36.26563 | -5.97171 | 24211 ft | 430 kts | 7° |
| 2026-04-27 19:55 | 36.29532 | -5.96664 | 24629 ft | 432 kts | 8° |
| 2026-04-27 19:55 | 36.32511 | -5.96118 | 25045 ft | 434 kts | 8° |
| 2026-04-27 19:55 | 36.35506 | -5.95556 | 25456 ft | 436 kts | 8° |
| 2026-04-27 19:56 | 36.38515 | -5.94994 | 25854 ft | 438 kts | 8° |
| 2026-04-27 19:56 | 36.41535 | -5.94442 | 26243 ft | 440 kts | 8° |
| 2026-04-27 19:56 | 36.44540 | -5.93900 | 26630 ft | 442 kts | 8° |
| 2026-04-27 19:56 | 36.47634 | -5.93347 | 27027 ft | 444 kts | 8° |
| 2026-04-27 19:57 | 36.50700 | -5.92804 | 27406 ft | 447 kts | 8° |
| 2026-04-27 19:57 | 36.53787 | -5.92260 | 27784 ft | 449 kts | 8° |
| 2026-04-27 19:57 | 36.56842 | -5.91722 | 28158 ft | 451 kts | 8° |
| 2026-04-27 19:57 | 36.59994 | -5.91165 | 28570 ft | 452 kts | 8° |
| 2026-04-27 19:58 | 36.63111 | -5.90610 | 28962 ft | 453 kts | 8° |
| 2026-04-27 19:58 | 36.66194 | -5.90056 | 29335 ft | 455 kts | 8° |
| 2026-04-27 19:58 | 36.69332 | -5.89491 | 29699 ft | 456 kts | 8° |
| 2026-04-27 19:58 | 36.72480 | -5.88923 | 30025 ft | 458 kts | 8° |
| 2026-04-27 19:59 | 36.75641 | -5.88353 | 30301 ft | 460 kts | 8° |
| 2026-04-27 19:59 | 36.78816 | -5.87786 | 30566 ft | 462 kts | 8° |
| 2026-04-27 19:59 | 36.82005 | -5.87219 | 30824 ft | 464 kts | 8° |
| 2026-04-27 19:59 | 36.85199 | -5.86653 | 31166 ft | 464 kts | 8° |
| 2026-04-27 20:00 | 36.88393 | -5.86084 | 31528 ft | 463 kts | 8° |
| 2026-04-27 20:00 | 36.91580 | -5.85511 | 31871 ft | 463 kts | 8° |
| 2026-04-27 20:00 | 36.94768 | -5.84936 | 32213 ft | 463 kts | 8° |
| 2026-04-27 20:00 | 36.97957 | -5.84361 | 32563 ft | 462 kts | 8° |
| 2026-04-27 20:01 | 37.01139 | -5.83788 | 32911 ft | 462 kts | 8° |
| 2026-04-27 20:01 | 37.04323 | -5.83213 | 33268 ft | 462 kts | 8° |
| 2026-04-27 20:01 | 37.07497 | -5.82637 | 33630 ft | 461 kts | 8° |
| 2026-04-27 20:01 | 37.10665 | -5.82062 | 33982 ft | 460 kts | 8° |
| 2026-04-27 20:02 | 37.13832 | -5.81489 | 34286 ft | 460 kts | 8° |
| 2026-04-27 20:02 | 37.16996 | -5.80915 | 34590 ft | 459 kts | 8° |
| 2026-04-27 20:02 | 37.20158 | -5.80341 | 34875 ft | 459 kts | 7° |
| 2026-04-27 20:02 | 37.23319 | -5.79768 | 35155 ft | 459 kts | 7° |
| 2026-04-27 20:03 | 37.26478 | -5.79194 | 35420 ft | 459 kts | 7° |
| 2026-04-27 20:03 | 37.29636 | -5.78620 | 35654 ft | 459 kts | 7° |
| 2026-04-27 20:03 | 37.32795 | -5.78046 | 35847 ft | 459 kts | 7° |
| 2026-04-27 20:03 | 37.35948 | -5.77473 | 35895 ft | 456 kts | 7° |
| 2026-04-27 20:04 | 37.42187 | -5.76133 | 35897 ft | 455 kts | 16° |
| 2026-04-27 20:04 | 37.47051 | -5.73655 | 35895 ft | 455 kts | 26° |
| 2026-04-27 20:05 | 37.53719 | -5.69608 | 35902 ft | 455 kts | 26° |
| 2026-04-27 20:05 | 37.59421 | -5.66153 | 35913 ft | 455 kts | 26° |
| 2026-04-27 20:06 | 37.65122 | -5.62695 | 35932 ft | 455 kts | 26° |
| 2026-04-27 20:06 | 37.70825 | -5.59232 | 35943 ft | 455 kts | 26° |
| 2026-04-27 20:07 | 37.76525 | -5.55769 | 35947 ft | 455 kts | 26° |
| 2026-04-27 20:07 | 37.82218 | -5.52294 | 35953 ft | 454 kts | 26° |
| 2026-04-27 20:08 | 37.87914 | -5.48811 | 35953 ft | 454 kts | 26° |
| 2026-04-27 20:08 | 37.93605 | -5.45333 | 35953 ft | 454 kts | 26° |
| 2026-04-27 20:09 | 37.99293 | -5.41848 | 35953 ft | 454 kts | 26° |
| 2026-04-27 20:09 | 38.04942 | -5.38384 | 35955 ft | 454 kts | 26° |
| 2026-04-27 20:10 | 38.10622 | -5.34889 | 35953 ft | 454 kts | 26° |
| 2026-04-27 20:10 | 38.16299 | -5.31386 | 35956 ft | 453 kts | 26° |
| 2026-04-27 20:11 | 38.21972 | -5.27887 | 35959 ft | 453 kts | 26° |
| 2026-04-27 20:11 | 38.27639 | -5.24384 | 35961 ft | 453 kts | 26° |
| 2026-04-27 20:12 | 38.32386 | -5.21447 | 35957 ft | 452 kts | 26° |
| 2026-04-27 20:12 | 38.38953 | -5.17365 | 35953 ft | 452 kts | 26° |
| 2026-04-27 20:13 | 38.44601 | -5.13847 | 35952 ft | 451 kts | 26° |
| 2026-04-27 20:13 | 38.50166 | -5.10148 | 35949 ft | 451 kts | 34° |
| 2026-04-27 20:14 | 38.54879 | -5.04892 | 35944 ft | 450 kts | 45° |
| 2026-04-27 20:14 | 38.58590 | -5.00221 | 35937 ft | 450 kts | 45° |
| 2026-04-27 20:15 | 38.63067 | -4.94611 | 35936 ft | 451 kts | 44° |
| 2026-04-27 20:15 | 38.67539 | -4.88990 | 35930 ft | 451 kts | 44° |
| 2026-04-27 20:16 | 38.72011 | -4.83357 | 35934 ft | 451 kts | 45° |
| 2026-04-27 20:16 | 38.76488 | -4.77716 | 35939 ft | 451 kts | 44° |
| 2026-04-27 20:17 | 38.80956 | -4.72061 | 35934 ft | 452 kts | 45° |
| 2026-04-27 20:17 | 38.85421 | -4.66394 | 35934 ft | 452 kts | 45° |
| 2026-04-27 20:18 | 38.89891 | -4.60709 | 35937 ft | 452 kts | 45° |
| 2026-04-27 20:18 | 38.94357 | -4.55018 | 35944 ft | 452 kts | 45° |
| 2026-04-27 20:19 | 38.98825 | -4.49322 | 35949 ft | 452 kts | 45° |
| 2026-04-27 20:19 | 39.03290 | -4.43621 | 35953 ft | 452 kts | 45° |
| 2026-04-27 20:20 | 39.07756 | -4.37911 | 35958 ft | 453 kts | 45° |
| 2026-04-27 20:20 | 39.12220 | -4.32187 | 35959 ft | 453 kts | 45° |
| 2026-04-27 20:21 | 39.16680 | -4.26457 | 35967 ft | 453 kts | 45° |
| 2026-04-27 20:21 | 39.21136 | -4.20707 | 35974 ft | 453 kts | 45° |
| 2026-04-27 20:22 | 39.25587 | -4.14954 | 35980 ft | 453 kts | 45° |
| 2026-04-27 20:22 | 39.30016 | -4.09229 | 35985 ft | 454 kts | 45° |
| 2026-04-27 20:23 | 39.34472 | -4.03465 | 35993 ft | 454 kts | 45° |
| 2026-04-27 20:23 | 39.38929 | -3.97691 | 35992 ft | 454 kts | 45° |
| 2026-04-27 20:24 | 39.43378 | -3.91907 | 35995 ft | 454 kts | 45° |
| 2026-04-27 20:24 | 39.47823 | -3.86113 | 36000 ft | 453 kts | 45° |
| 2026-04-27 20:25 | 39.52262 | -3.80314 | 35999 ft | 454 kts | 45° |
| 2026-04-27 20:25 | 39.56705 | -3.74505 | 35999 ft | 453 kts | 45° |
| 2026-04-27 20:26 | 39.61143 | -3.68700 | 35995 ft | 453 kts | 45° |
| 2026-04-27 20:26 | 39.65583 | -3.62877 | 35995 ft | 454 kts | 45° |
| 2026-04-27 20:27 | 39.70019 | -3.57046 | 35994 ft | 454 kts | 45° |
| 2026-04-27 20:27 | 39.74453 | -3.51195 | 35997 ft | 454 kts | 45° |
| 2026-04-27 20:28 | 39.79062 | -3.45595 | 36006 ft | 454 kts | 35° |
| 2026-04-27 20:28 | 39.83429 | -3.41809 | 36005 ft | 454 kts | 32° |
| 2026-04-27 20:29 | 39.89604 | -3.36539 | 36006 ft | 454 kts | 32° |
| 2026-04-27 20:29 | 39.94884 | -3.32002 | 36018 ft | 455 kts | 33° |
| 2026-04-27 20:30 | 40.00158 | -3.27449 | 36022 ft | 455 kts | 33° |
| 2026-04-27 20:30 | 40.05428 | -3.22893 | 36031 ft | 455 kts | 33° |
| 2026-04-27 20:31 | 40.10698 | -3.18337 | 36037 ft | 454 kts | 33° |
| 2026-04-27 20:31 | 40.15969 | -3.13771 | 36041 ft | 454 kts | 33° |
| 2026-04-27 20:32 | 40.21202 | -3.09228 | 36038 ft | 454 kts | 33° |
| 2026-04-27 20:32 | 40.26459 | -3.04651 | 36042 ft | 454 kts | 33° |
| 2026-04-27 20:33 | 40.31711 | -3.00067 | 36039 ft | 453 kts | 33° |
| 2026-04-27 20:33 | 40.36957 | -2.95478 | 36042 ft | 453 kts | 33° |
| 2026-04-27 20:34 | 40.42200 | -2.90882 | 36038 ft | 453 kts | 33° |
| 2026-04-27 20:34 | 40.47449 | -2.86282 | 36042 ft | 454 kts | 33° |
| 2026-04-27 20:35 | 40.52696 | -2.81677 | 36045 ft | 454 kts | 33° |
| 2026-04-27 20:35 | 40.57942 | -2.77068 | 36048 ft | 454 kts | 33° |
| 2026-04-27 20:36 | 40.63187 | -2.72442 | 36045 ft | 454 kts | 33° |
| 2026-04-27 20:36 | 40.68428 | -2.67797 | 36052 ft | 454 kts | 33° |
| 2026-04-27 20:37 | 40.73669 | -2.63154 | 36054 ft | 453 kts | 33° |
| 2026-04-27 20:37 | 40.78900 | -2.58516 | 36058 ft | 453 kts | 33° |
| 2026-04-27 20:38 | 40.84125 | -2.53868 | 36055 ft | 453 kts | 33° |
| 2026-04-27 20:38 | 40.89347 | -2.49204 | 36054 ft | 453 kts | 33° |
| 2026-04-27 20:39 | 40.94564 | -2.44547 | 36050 ft | 453 kts | 32° |
| 2026-04-27 20:39 | 40.99788 | -2.39887 | 36047 ft | 453 kts | 32° |
| 2026-04-27 20:40 | 41.04942 | -2.35088 | 36047 ft | 453 kts | 36° |
| 2026-04-27 20:40 | 41.09867 | -2.29854 | 36047 ft | 454 kts | 38° |
| 2026-04-27 20:41 | 41.14723 | -2.24492 | 36050 ft | 454 kts | 38° |
| 2026-04-27 20:41 | 41.19618 | -2.19192 | 36049 ft | 454 kts | 37° |
| 2026-04-27 20:42 | 41.24548 | -2.13953 | 36042 ft | 454 kts | 37° |
| 2026-04-27 20:42 | 41.29481 | -2.08715 | 36039 ft | 454 kts | 37° |
| 2026-04-27 20:43 | 41.34408 | -2.03452 | 36041 ft | 454 kts | 37° |
| 2026-04-27 20:43 | 41.39327 | -1.98174 | 36038 ft | 454 kts | 37° |
| 2026-04-27 20:44 | 41.44240 | -1.92890 | 36046 ft | 454 kts | 37° |
| 2026-04-27 20:44 | 41.49151 | -1.87596 | 36041 ft | 454 kts | 37° |
| 2026-04-27 20:45 | 41.54056 | -1.82305 | 36043 ft | 453 kts | 37° |
| 2026-04-27 20:45 | 41.58955 | -1.77000 | 36049 ft | 453 kts | 37° |
| 2026-04-27 20:46 | 41.63850 | -1.71692 | 36053 ft | 453 kts | 37° |
| 2026-04-27 20:46 | 41.68741 | -1.66384 | 36051 ft | 453 kts | 37° |
| 2026-04-27 20:47 | 41.73630 | -1.61066 | 36049 ft | 453 kts | 37° |
| 2026-04-27 20:47 | 41.78518 | -1.55742 | 36047 ft | 453 kts | 37° |
| 2026-04-27 20:48 | 41.82577 | -1.51307 | 36043 ft | 453 kts | 37° |
| 2026-04-27 20:48 | 41.88250 | -1.45085 | 36032 ft | 453 kts | 37° |
| 2026-04-27 20:49 | 41.93135 | -1.39727 | 36032 ft | 453 kts | 37° |
| 2026-04-27 20:49 | 41.98021 | -1.34368 | 36033 ft | 454 kts | 37° |
| 2026-04-27 20:50 | 42.02902 | -1.28998 | 36038 ft | 453 kts | 38° |
| 2026-04-27 20:50 | 42.07778 | -1.23607 | 36040 ft | 453 kts | 38° |
| 2026-04-27 20:51 | 42.12650 | -1.18210 | 36050 ft | 453 kts | 38° |
| 2026-04-27 20:51 | 42.17519 | -1.12818 | 36054 ft | 453 kts | 38° |
| 2026-04-27 20:52 | 42.22382 | -1.07406 | 36062 ft | 453 kts | 38° |
| 2026-04-27 20:52 | 42.27240 | -1.01996 | 36063 ft | 453 kts | 38° |
| 2026-04-27 20:53 | 42.32104 | -0.96581 | 36065 ft | 453 kts | 38° |
| 2026-04-27 20:53 | 42.36968 | -0.91160 | 36073 ft | 453 kts | 38° |
| 2026-04-27 20:54 | 42.43989 | -0.82613 | 36079 ft | 455 kts | 50° |
| 2026-04-27 20:55 | 42.47850 | -0.75820 | 36085 ft | 455 kts | 51° |
| 2026-04-27 20:55 | 42.51711 | -0.69028 | 36092 ft | 455 kts | 51° |
| 2026-04-27 20:56 | 42.55574 | -0.62229 | 36099 ft | 455 kts | 51° |
| 2026-04-27 20:56 | 42.59430 | -0.55412 | 36110 ft | 455 kts | 51° |
| 2026-04-27 20:57 | 42.63281 | -0.48581 | 36127 ft | 455 kts | 51° |
| 2026-04-27 20:57 | 42.67128 | -0.41753 | 36125 ft | 455 kts | 51° |
| 2026-04-27 20:58 | 42.70971 | -0.34916 | 36136 ft | 455 kts | 51° |
| 2026-04-27 20:58 | 42.74811 | -0.28070 | 36147 ft | 455 kts | 51° |
| 2026-04-27 20:59 | 42.78636 | -0.21226 | 36151 ft | 454 kts | 52° |
| 2026-04-27 20:59 | 42.81846 | -0.15567 | 36145 ft | 454 kts | 50° |
| 2026-04-27 21:00 | 42.85856 | -0.08933 | 36148 ft | 454 kts | 49° |
| 2026-04-27 21:00 | 42.89906 | -0.02341 | 36146 ft | 453 kts | 49° |
| 2026-04-27 21:01 | 42.93918 | 0.04300 | 36145 ft | 453 kts | 50° |
| 2026-04-27 21:01 | 42.97899 | 0.10980 | 36148 ft | 453 kts | 50° |
| 2026-04-27 21:02 | 43.01875 | 0.17667 | 36147 ft | 453 kts | 50° |
| 2026-04-27 21:02 | 43.05846 | 0.24352 | 36143 ft | 453 kts | 50° |
| 2026-04-27 21:03 | 43.09817 | 0.31035 | 36141 ft | 453 kts | 50° |
| 2026-04-27 21:03 | 43.13789 | 0.37726 | 36134 ft | 452 kts | 50° |
| 2026-04-27 21:04 | 43.17748 | 0.44425 | 36127 ft | 452 kts | 50° |
| 2026-04-27 21:04 | 43.21702 | 0.51133 | 36119 ft | 452 kts | 50° |
| 2026-04-27 21:05 | 43.25655 | 0.57848 | 36114 ft | 452 kts | 50° |
| 2026-04-27 21:05 | 43.29597 | 0.64571 | 36111 ft | 452 kts | 50° |
| 2026-04-27 21:06 | 43.33532 | 0.71307 | 36108 ft | 452 kts | 50° |
| 2026-04-27 21:06 | 43.37475 | 0.78034 | 36103 ft | 452 kts | 50° |
| 2026-04-27 21:07 | 43.41409 | 0.84781 | 36096 ft | 452 kts | 50° |
| 2026-04-27 21:07 | 43.45336 | 0.91541 | 36094 ft | 452 kts | 50° |
| 2026-04-27 21:08 | 43.49268 | 0.98310 | 36094 ft | 453 kts | 50° |
| 2026-04-27 21:08 | 43.53167 | 1.05042 | 36096 ft | 453 kts | 50° |
| 2026-04-27 21:09 | 43.57117 | 1.11881 | 36101 ft | 453 kts | 50° |
| 2026-04-27 21:09 | 43.61037 | 1.18680 | 36107 ft | 453 kts | 50° |
| 2026-04-27 21:10 | 43.64952 | 1.25486 | 36112 ft | 453 kts | 50° |
| 2026-04-27 21:10 | 43.68833 | 1.32270 | 36111 ft | 453 kts | 51° |
| 2026-04-27 21:11 | 43.72643 | 1.39295 | 36111 ft | 454 kts | 52° |
| 2026-04-27 21:11 | 43.76324 | 1.46315 | 36107 ft | 454 kts | 52° |
| 2026-04-27 21:12 | 43.80040 | 1.53382 | 36094 ft | 454 kts | 52° |
| 2026-04-27 21:12 | 43.83782 | 1.60427 | 36087 ft | 454 kts | 52° |
| 2026-04-27 21:13 | 43.87530 | 1.67480 | 36079 ft | 454 kts | 52° |
| 2026-04-27 21:13 | 43.91271 | 1.74547 | 36082 ft | 455 kts | 52° |
| 2026-04-27 21:14 | 43.95001 | 1.81630 | 36079 ft | 455 kts | 52° |
| 2026-04-27 21:14 | 43.98674 | 1.88790 | 36081 ft | 455 kts | 53° |
| 2026-04-27 21:15 | 44.02259 | 1.96044 | 36083 ft | 455 kts | 54° |
| 2026-04-27 21:15 | 44.05830 | 2.03317 | 36085 ft | 455 kts | 54° |
| 2026-04-27 21:16 | 44.09421 | 2.10577 | 36088 ft | 455 kts | 53° |
| 2026-04-27 21:16 | 44.13025 | 2.17831 | 36089 ft | 456 kts | 53° |
| 2026-04-27 21:17 | 44.16620 | 2.25096 | 36100 ft | 455 kts | 53° |
| 2026-04-27 21:17 | 44.20202 | 2.32370 | 36108 ft | 455 kts | 53° |
| 2026-04-27 21:18 | 44.23778 | 2.39658 | 36118 ft | 455 kts | 53° |
| 2026-04-27 21:18 | 44.27346 | 2.46946 | 36116 ft | 455 kts | 54° |
| 2026-04-27 21:19 | 44.30911 | 2.54258 | 36121 ft | 455 kts | 53° |
| 2026-04-27 21:19 | 44.34475 | 2.61566 | 36115 ft | 455 kts | 53° |
| 2026-04-27 21:20 | 44.39821 | 2.72537 | 36114 ft | 455 kts | 54° |
| 2026-04-27 21:20 | 44.43372 | 2.79878 | 36111 ft | 456 kts | 54° |
| 2026-04-27 21:21 | 44.46920 | 2.87226 | 36108 ft | 456 kts | 54° |
| 2026-04-27 21:21 | 44.50468 | 2.94594 | 36105 ft | 456 kts | 54° |
| 2026-04-27 21:22 | 44.54021 | 3.01969 | 36108 ft | 457 kts | 54° |
| 2026-04-27 21:22 | 44.57567 | 3.09363 | 36106 ft | 457 kts | 54° |
| 2026-04-27 21:23 | 44.61091 | 3.16792 | 36105 ft | 458 kts | 55° |
| 2026-04-27 21:23 | 44.64352 | 3.24493 | 36104 ft | 459 kts | 59° |
| 2026-04-27 21:24 | 44.67402 | 3.32383 | 36104 ft | 460 kts | 59° |
| 2026-04-27 21:24 | 44.70467 | 3.40280 | 36102 ft | 460 kts | 59° |
| 2026-04-27 21:25 | 44.73593 | 3.48127 | 36104 ft | 460 kts | 58° |
| 2026-04-27 21:25 | 44.76738 | 3.55981 | 36102 ft | 461 kts | 58° |
| 2026-04-27 21:26 | 44.79845 | 3.63801 | 36103 ft | 461 kts | 58° |
| 2026-04-27 21:26 | 44.82961 | 3.71684 | 36104 ft | 461 kts | 58° |
| 2026-04-27 21:27 | 44.86081 | 3.79592 | 36105 ft | 462 kts | 58° |
| 2026-04-27 21:27 | 44.89202 | 3.87511 | 36104 ft | 462 kts | 58° |
| 2026-04-27 21:28 | 44.92313 | 3.95448 | 36103 ft | 462 kts | 58° |
| 2026-04-27 21:28 | 44.95420 | 4.03393 | 36107 ft | 463 kts | 58° |
| 2026-04-27 21:29 | 44.98528 | 4.11352 | 36104 ft | 463 kts | 58° |
| 2026-04-27 21:29 | 45.01617 | 4.19324 | 36107 ft | 462 kts | 58° |
| 2026-04-27 21:30 | 45.04710 | 4.27299 | 36105 ft | 462 kts | 58° |
| 2026-04-27 21:30 | 45.07798 | 4.35270 | 36107 ft | 462 kts | 59° |
| 2026-04-27 21:31 | 45.10874 | 4.43259 | 36006 ft | 463 kts | 59° |
| 2026-04-27 21:31 | 45.12412 | 4.47261 | 35745 ft | 462 kts | 59° |
| 2026-04-27 21:31 | 45.13944 | 4.51252 | 35314 ft | 460 kts | 59° |
| 2026-04-27 21:32 | 45.15471 | 4.55235 | 34754 ft | 460 kts | 59° |
| 2026-04-27 21:32 | 45.16997 | 4.59221 | 34195 ft | 461 kts | 59° |
| 2026-04-27 21:32 | 45.18520 | 4.63216 | 33622 ft | 459 kts | 59° |
| 2026-04-27 21:32 | 45.20030 | 4.67181 | 33115 ft | 457 kts | 59° |
| 2026-04-27 21:33 | 45.21535 | 4.71135 | 32618 ft | 454 kts | 59° |
| 2026-04-27 21:33 | 45.23033 | 4.75064 | 32106 ft | 451 kts | 59° |
| 2026-04-27 21:33 | 45.24524 | 4.78971 | 31609 ft | 449 kts | 59° |
| 2026-04-27 21:33 | 45.26004 | 4.82857 | 31113 ft | 446 kts | 60° |
| 2026-04-27 21:34 | 45.27472 | 4.86724 | 30630 ft | 444 kts | 60° |
| 2026-04-27 21:34 | 45.28930 | 4.90573 | 30147 ft | 442 kts | 60° |
| 2026-04-27 21:34 | 45.30379 | 4.94407 | 29637 ft | 438 kts | 60° |
| 2026-04-27 21:34 | 45.31810 | 4.98198 | 29188 ft | 434 kts | 60° |
| 2026-04-27 21:35 | 45.33229 | 5.01959 | 28742 ft | 429 kts | 60° |
| 2026-04-27 21:35 | 45.34628 | 5.05678 | 28311 ft | 425 kts | 60° |
| 2026-04-27 21:35 | 45.36012 | 5.09369 | 27873 ft | 421 kts | 60° |
| 2026-04-27 21:35 | 45.37383 | 5.13027 | 27432 ft | 417 kts | 60° |
| 2026-04-27 21:36 | 45.38744 | 5.16656 | 26985 ft | 414 kts | 60° |
| 2026-04-27 21:36 | 45.40095 | 5.20257 | 26543 ft | 412 kts | 60° |
| 2026-04-27 21:36 | 45.41439 | 5.23840 | 26097 ft | 409 kts | 60° |
| 2026-04-27 21:36 | 45.42774 | 5.27407 | 25631 ft | 408 kts | 60° |
| 2026-04-27 21:37 | 45.44103 | 5.30973 | 25163 ft | 406 kts | 60° |
| 2026-04-27 21:37 | 45.45420 | 5.34518 | 24685 ft | 405 kts | 60° |
| 2026-04-27 21:37 | 45.46735 | 5.38061 | 24194 ft | 405 kts | 60° |
| 2026-04-27 21:37 | 45.48182 | 5.41486 | 23713 ft | 403 kts | 51° |
| 2026-04-27 21:38 | 45.50059 | 5.44418 | 23171 ft | 399 kts | 38° |
| 2026-04-27 21:38 | 45.52283 | 5.46706 | 22701 ft | 392 kts | 27° |
| 2026-04-27 21:38 | 45.54606 | 5.48611 | 22247 ft | 389 kts | 27° |
| 2026-04-27 21:38 | 45.56943 | 5.50537 | 21772 ft | 387 kts | 27° |
| 2026-04-27 21:39 | 45.59262 | 5.52465 | 21323 ft | 385 kts | 27° |
| 2026-04-27 21:39 | 45.61566 | 5.54389 | 20883 ft | 382 kts | 27° |
| 2026-04-27 21:39 | 45.63853 | 5.56301 | 20434 ft | 380 kts | 27° |
| 2026-04-27 21:39 | 45.66127 | 5.58199 | 20055 ft | 376 kts | 27° |
| 2026-04-27 21:40 | 45.68396 | 5.60084 | 19607 ft | 375 kts | 27° |
| 2026-04-27 21:40 | 45.70641 | 5.61896 | 19120 ft | 367 kts | 26° |
| 2026-04-27 21:40 | 45.72853 | 5.63639 | 18675 ft | 361 kts | 26° |
| 2026-04-27 21:40 | 45.75058 | 5.65356 | 18232 ft | 360 kts | 26° |
| 2026-04-27 21:41 | 45.77247 | 5.67061 | 17900 ft | 355 kts | 26° |
| 2026-04-27 21:41 | 45.79380 | 5.68733 | 17806 ft | 345 kts | 26° |
| 2026-04-27 21:41 | 45.81350 | 5.70679 | 17553 ft | 344 kts | 41° |
| 2026-04-27 21:41 | 45.83084 | 5.73025 | 17293 ft | 342 kts | 42° |
| 2026-04-27 21:42 | 45.84803 | 5.75367 | 17036 ft | 341 kts | 42° |
| 2026-04-27 21:42 | 45.86514 | 5.77710 | 16778 ft | 339 kts | 42° |
| 2026-04-27 21:42 | 45.88216 | 5.80044 | 16540 ft | 338 kts | 42° |
| 2026-04-27 21:42 | 45.89911 | 5.82371 | 16287 ft | 337 kts | 42° |
| 2026-04-27 21:43 | 45.91600 | 5.84691 | 16037 ft | 335 kts | 42° |
| 2026-04-27 21:43 | 45.93282 | 5.87004 | 15790 ft | 334 kts | 42° |
| 2026-04-27 21:43 | 45.94957 | 5.89307 | 15546 ft | 333 kts | 43° |
| 2026-04-27 21:43 | 45.96621 | 5.91612 | 15314 ft | 332 kts | 43° |
| 2026-04-27 21:44 | 45.98256 | 5.93937 | 15058 ft | 330 kts | 44° |
| 2026-04-27 21:44 | 45.99873 | 5.96272 | 14818 ft | 329 kts | 44° |
| 2026-04-27 21:44 | 46.01479 | 5.98603 | 14581 ft | 328 kts | 44° |
| 2026-04-27 21:44 | 46.02541 | 6.00144 | 14419 ft | 327 kts | 44° |
| 2026-04-27 21:45 | 46.04136 | 6.02461 | 14186 ft | 325 kts | 44° |
| 2026-04-27 21:45 | 46.06262 | 6.05544 | 13855 ft | 323 kts | 44° |
| 2026-04-27 21:45 | 46.07309 | 6.07062 | 13690 ft | 323 kts | 44° |
| 2026-04-27 21:45 | 46.08890 | 6.09348 | 13405 ft | 321 kts | 44° |
| 2026-04-27 21:46 | 46.10464 | 6.11625 | 13140 ft | 320 kts | 44° |
| 2026-04-27 21:46 | 46.12019 | 6.13906 | 12882 ft | 318 kts | 45° |
| 2026-04-27 21:46 | 46.13563 | 6.16191 | 12620 ft | 317 kts | 45° |
| 2026-04-27 21:46 | 46.15096 | 6.18472 | 12362 ft | 316 kts | 45° |
| 2026-04-27 21:47 | 46.16619 | 6.20741 | 12130 ft | 315 kts | 45° |
| 2026-04-27 21:47 | 46.18138 | 6.23009 | 11868 ft | 313 kts | 45° |
| 2026-04-27 21:47 | 46.19648 | 6.25264 | 11613 ft | 312 kts | 45° |
| 2026-04-27 21:47 | 46.21157 | 6.27505 | 11365 ft | 310 kts | 45° |
| 2026-04-27 21:48 | 46.22654 | 6.29702 | 11112 ft | 301 kts | 44° |
| 2026-04-27 21:48 | 46.24092 | 6.31804 | 10840 ft | 288 kts | 44° |
| 2026-04-27 21:48 | 46.25489 | 6.33849 | 10339 ft | 285 kts | 44° |
| 2026-04-27 21:48 | 46.26406 | 6.35192 | 10006 ft | 283 kts | 44° |